createdAt,value
2022-11-17T00:02:24.992Z,5.11
2022-11-17T00:05:30.106Z,5.07
2022-11-17T00:08:34.834Z,5.05
2022-11-17T00:11:52.254Z,5.02
2022-11-17T00:14:55.895Z,5.00
2022-11-17T00:18:13.349Z,5.03
2022-11-17T00:21:21.243Z,4.99
2022-11-17T00:24:25.223Z,4.95
2022-11-17T00:27:28.898Z,4.96
2022-11-17T00:30:49.708Z,4.92
2022-11-17T00:34:08.026Z,4.91
2022-11-17T00:37:15.586Z,4.88
2022-11-17T00:40:19.282Z,4.93
2022-11-17T00:43:22.882Z,4.88
2022-11-17T00:46:26.882Z,4.85
2022-11-17T00:49:30.505Z,4.88
2022-11-17T00:52:35.519Z,4.87
2022-11-17T00:55:39.136Z,4.87
2022-11-17T00:58:42.739Z,4.89
2022-11-17T01:01:47.145Z,4.91
2022-11-17T01:04:50.801Z,4.91
2022-11-17T01:07:56.186Z,4.91
2022-11-17T01:11:11.637Z,4.91
2022-11-17T01:14:18.515Z,4.96
2022-11-17T01:17:22.074Z,4.99
2022-11-17T01:20:25.630Z,4.98
2022-11-17T01:23:30.550Z,4.95
2022-11-17T01:26:37.530Z,4.93
2022-11-17T01:29:41.028Z,4.96
2022-11-17T01:32:44.606Z,4.94
2022-11-17T01:35:48.166Z,5.00
2022-11-17T01:38:53.636Z,4.93
2022-11-17T01:41:57.793Z,4.95
2022-11-17T01:45:17.903Z,4.98
2022-11-17T01:48:21.573Z,4.95
2022-11-17T01:51:26.393Z,4.91
2022-11-17T01:54:34.229Z,4.89
2022-11-17T01:57:43.838Z,4.89
2022-11-17T02:00:47.944Z,4.89
2022-11-17T02:03:52.425Z,4.90
2022-11-17T02:07:07.745Z,4.94
2022-11-17T02:10:12.930Z,4.92
2022-11-17T02:13:16.731Z,4.94
2022-11-17T02:16:20.596Z,4.95
2022-11-17T02:19:28.315Z,4.95
2022-11-17T02:23:03.224Z,4.95
2022-11-17T02:26:42.112Z,4.92
2022-11-17T02:29:56.161Z,4.95
2022-11-17T02:33:07.927Z,4.88
2022-11-17T02:36:19.254Z,4.87
2022-11-17T02:39:31.390Z,4.89
2022-11-17T02:43:00.332Z,4.90
2022-11-17T02:46:10.609Z,4.87
2022-11-17T02:49:23.967Z,4.87
2022-11-17T02:52:30.179Z,4.82
2022-11-17T02:55:36.392Z,4.87
2022-11-17T02:58:39.910Z,4.85
2022-11-17T03:02:35.775Z,4.85
2022-11-17T03:05:54.583Z,4.82
2022-11-17T03:09:11.409Z,4.84
2022-11-17T03:12:30.302Z,4.85
2022-11-17T03:15:48.666Z,4.83
2022-11-17T03:19:07.536Z,4.86
2022-11-17T03:22:18.349Z,4.85
2022-11-17T03:25:25.150Z,4.87
2022-11-17T03:28:33.887Z,4.82
2022-11-17T03:31:40.064Z,4.79
2022-11-17T03:34:53.098Z,4.83
2022-11-17T03:38:02.755Z,4.76
2022-11-17T03:41:11.947Z,4.77
2022-11-17T03:44:21.790Z,4.72
2022-11-17T03:47:29.959Z,4.72
2022-11-17T03:50:42.235Z,4.70
2022-11-17T03:53:47.363Z,4.71
2022-11-17T03:57:03.172Z,4.72
2022-11-17T04:00:11.504Z,4.74
2022-11-17T04:03:16.409Z,4.71
2022-11-17T04:06:21.420Z,4.72
2022-11-17T04:09:25.085Z,4.74
2022-11-17T04:12:46.664Z,4.68
2022-11-17T04:15:59.588Z,4.68
2022-11-17T04:19:03.209Z,4.67
2022-11-17T04:22:08.321Z,4.64
2022-11-17T04:25:32.486Z,4.62
2022-11-17T04:28:44.270Z,4.66
2022-11-17T04:31:47.995Z,4.62
2022-11-17T04:34:51.735Z,4.61
2022-11-17T04:37:56.662Z,4.54
2022-11-17T04:41:23.751Z,4.51
2022-11-17T04:44:29.564Z,4.50
2022-11-17T04:47:33.173Z,4.49
2022-11-17T04:50:36.684Z,4.44
2022-11-17T04:53:41.864Z,4.41
2022-11-17T04:56:46.757Z,4.37
2022-11-17T04:59:50.429Z,4.37
2022-11-17T05:02:54.021Z,4.35
2022-11-17T05:05:57.590Z,4.33
2022-11-17T05:09:05.690Z,4.33
2022-11-17T05:12:28.064Z,4.35
2022-11-17T05:15:46.774Z,4.35
2022-11-17T05:18:50.316Z,4.34
2022-11-17T05:21:53.966Z,4.33
2022-11-17T05:24:58.837Z,4.35
2022-11-17T05:28:02.386Z,4.36
2022-11-17T05:31:06.313Z,4.37
2022-11-17T05:34:12.516Z,4.34
2022-11-17T05:37:16.132Z,4.28
2022-11-17T05:40:21.100Z,4.27
2022-11-17T05:43:37.466Z,4.33
2022-11-17T05:46:41.191Z,4.26
2022-11-17T05:49:44.886Z,4.20
2022-11-17T05:52:48.499Z,4.18
2022-11-17T05:56:15.143Z,4.12
2022-11-17T05:59:28.251Z,4.01
2022-11-17T06:02:42.050Z,3.97
2022-11-17T06:05:46.073Z,3.95
2022-11-17T06:08:50.487Z,3.94
2022-11-17T06:11:58.550Z,3.97
2022-11-17T06:15:05.711Z,3.88
2022-11-17T06:18:15.427Z,3.89
2022-11-17T06:21:19.452Z,3.85
2022-11-17T06:24:23.830Z,3.83
2022-11-17T06:27:32.058Z,3.79
2022-11-17T06:30:37.630Z,3.77
2022-11-17T06:33:41.579Z,3.74
2022-11-17T06:36:45.174Z,3.72
2022-11-17T06:39:48.885Z,3.72
2022-11-17T06:43:10.862Z,3.76
2022-11-17T06:46:14.682Z,3.75
2022-11-17T06:49:18.526Z,3.70
2022-11-17T06:52:23.167Z,3.67
2022-11-17T06:55:27.440Z,3.62
2022-11-17T06:58:33.596Z,3.65
2022-11-17T07:01:39.220Z,3.57
2022-11-17T07:04:42.873Z,3.56
2022-11-17T07:07:46.538Z,3.58
2022-11-17T07:10:54.782Z,3.60
2022-11-17T07:14:00.236Z,3.62
2022-11-17T07:17:04.037Z,3.63
2022-11-17T07:20:10.789Z,3.59
2022-11-17T07:23:14.769Z,3.50
2022-11-17T07:26:18.645Z,3.49
2022-11-17T07:29:23.947Z,3.50
2022-11-17T07:32:27.608Z,3.43
2022-11-17T07:35:32.043Z,3.44
2022-11-17T07:38:36.622Z,3.34
2022-11-17T07:41:40.413Z,3.31
2022-11-17T07:44:45.455Z,3.30
2022-11-17T07:47:56.889Z,3.22
2022-11-17T07:51:00.795Z,3.18
2022-11-17T07:54:04.851Z,3.12
2022-11-17T07:57:08.648Z,3.09
2022-11-17T08:00:15.923Z,3.08
2022-11-17T08:03:19.646Z,3.01
2022-11-17T08:06:24.340Z,2.99
2022-11-17T08:09:28.070Z,2.97
2022-11-17T08:12:31.697Z,2.94
2022-11-17T08:15:42.862Z,2.91
2022-11-17T08:18:52.168Z,2.88
2022-11-17T08:21:56.320Z,2.81
2022-11-17T08:24:59.972Z,2.79
2022-11-17T08:28:03.898Z,2.75
2022-11-17T08:31:09.612Z,2.76
2022-11-17T08:34:13.268Z,2.69
2022-11-17T08:37:16.860Z,2.71
2022-11-17T08:40:21.433Z,2.67
2022-11-17T08:43:25.359Z,2.66
2022-11-17T08:46:30.392Z,2.68
2022-11-17T08:49:34.045Z,2.61
2022-11-17T08:52:38.960Z,2.61
2022-11-17T08:55:42.955Z,2.61
2022-11-17T08:58:47.044Z,2.59
2022-11-17T09:01:52.033Z,2.62
2022-11-17T09:04:55.721Z,2.60
2022-11-17T09:08:16.419Z,2.61
2022-11-17T09:11:24.951Z,2.65
2022-11-17T09:14:28.812Z,2.64
2022-11-17T09:17:34.586Z,2.58
2022-11-17T09:20:44.257Z,2.62
2022-11-17T09:23:49.737Z,2.61
2022-11-17T09:26:57.365Z,2.61
2022-11-17T09:30:01.120Z,2.61
2022-11-17T09:33:06.275Z,2.61
2022-11-17T09:36:11.876Z,2.58
2022-11-17T09:39:15.527Z,2.59
2022-11-17T09:42:23.727Z,2.65
2022-11-17T09:45:35.401Z,2.64
2022-11-17T09:48:49.535Z,2.66
2022-11-17T09:51:57.932Z,2.61
2022-11-17T09:55:11.994Z,2.62
2022-11-17T09:58:31.470Z,2.63
2022-11-17T10:01:35.970Z,2.63
2022-11-17T10:04:41.252Z,2.66
2022-11-17T10:07:51.309Z,2.67
2022-11-17T10:10:55.147Z,2.68
2022-11-17T10:13:59.472Z,2.69
2022-11-17T10:17:03.987Z,2.67
2022-11-17T10:20:18.762Z,2.71
2022-11-17T10:23:23.960Z,2.70
2022-11-17T10:26:28.300Z,2.76
2022-11-17T10:29:32.144Z,2.73
2022-11-17T10:32:42.708Z,2.71
2022-11-17T10:35:58.202Z,2.76
2022-11-17T10:39:02.695Z,2.79
2022-11-17T10:42:27.670Z,2.80
2022-11-17T10:45:46.120Z,2.82
2022-11-17T10:48:58.381Z,2.80
2022-11-17T10:52:18.594Z,2.80
2022-11-17T10:55:28.245Z,2.81
2022-11-17T10:58:34.112Z,2.91
2022-11-17T11:01:40.214Z,2.90
2022-11-17T11:04:43.937Z,2.89
2022-11-17T11:07:49.097Z,2.94
2022-11-17T11:10:57.077Z,2.90
2022-11-17T11:14:06.714Z,2.93
2022-11-17T11:17:14.285Z,2.96
2022-11-17T11:20:22.168Z,2.98
2022-11-17T11:23:40.924Z,2.99
2022-11-17T11:26:58.171Z,3.00
2022-11-17T11:30:06.406Z,3.07
2022-11-17T11:33:29.110Z,3.04
2022-11-17T11:36:44.016Z,3.11
2022-11-17T11:40:06.192Z,3.10
2022-11-17T11:43:34.724Z,3.13
2022-11-17T11:46:53.121Z,3.16
2022-11-17T11:50:03.616Z,3.20
2022-11-17T11:53:17.143Z,3.16
2022-11-17T11:56:28.896Z,3.19
2022-11-17T11:59:48.245Z,3.26
2022-11-17T12:02:59.763Z,3.24
2022-11-17T12:06:35.401Z,3.26
2022-11-17T12:10:06.283Z,3.32
2022-11-17T12:13:16.143Z,3.38
2022-11-17T12:16:21.395Z,3.41
2022-11-17T12:19:56.200Z,3.45
2022-11-17T12:23:13.175Z,3.43
2022-11-17T12:26:27.288Z,3.41
2022-11-17T12:29:33.103Z,3.42
2022-11-17T12:32:54.800Z,3.41
2022-11-17T12:36:31.688Z,3.38
2022-11-17T12:39:57.485Z,3.39
2022-11-17T12:43:23.035Z,3.45
2022-11-17T12:46:34.443Z,3.44
2022-11-17T12:49:52.364Z,3.47
2022-11-17T12:53:20.458Z,3.43
2022-11-17T12:57:05.608Z,3.52
2022-11-17T13:00:20.187Z,3.52
2022-11-17T13:03:38.042Z,3.48
2022-11-17T13:07:01.294Z,3.42
2022-11-17T13:10:05.621Z,3.48
2022-11-17T13:13:19.398Z,3.48
2022-11-17T13:16:23.579Z,3.50
2022-11-17T13:19:36.819Z,3.47
2022-11-17T13:22:43.161Z,3.51
2022-11-17T13:25:47.272Z,3.45
2022-11-17T13:29:05.296Z,3.47
2022-11-17T13:32:20.264Z,3.43
2022-11-17T13:35:28.951Z,3.45
2022-11-17T13:38:32.594Z,3.46
2022-11-17T13:41:40.788Z,3.46
2022-11-17T13:44:44.624Z,3.49
2022-11-17T13:47:50.207Z,3.45
2022-11-17T13:50:55.280Z,3.42
2022-11-17T13:54:03.114Z,3.42
2022-11-17T13:57:09.922Z,3.43
2022-11-17T14:00:19.271Z,3.39
2022-11-17T14:03:37.360Z,3.42
2022-11-17T14:07:00.370Z,3.36
2022-11-17T14:10:15.272Z,3.36
2022-11-17T14:13:24.778Z,3.40
2022-11-17T14:16:35.908Z,3.37
2022-11-17T14:19:39.624Z,3.38
2022-11-17T14:23:02.661Z,3.39
2022-11-17T14:26:07.564Z,3.37
2022-11-17T14:29:13.810Z,3.36
2022-11-17T14:32:17.387Z,3.37
2022-11-17T14:35:21.035Z,3.37
2022-11-17T14:38:26.354Z,3.39
2022-11-17T14:41:30.336Z,3.38
2022-11-17T14:44:33.933Z,3.39
2022-11-17T14:47:37.511Z,3.37
2022-11-17T14:50:41.466Z,3.34
2022-11-17T14:53:47.979Z,3.37
2022-11-17T14:56:51.761Z,3.36
2022-11-17T14:59:55.419Z,3.33
2022-11-17T15:02:59.179Z,3.32
2022-11-17T15:06:08.861Z,3.31
2022-11-17T15:09:16.604Z,3.30
2022-11-17T15:12:20.936Z,3.32
2022-11-17T15:15:25.927Z,3.30
2022-11-17T15:18:30.235Z,3.30
2022-11-17T15:21:34.027Z,3.34
2022-11-17T15:24:39.046Z,3.32
2022-11-17T15:27:43.023Z,3.33
2022-11-17T15:30:46.659Z,3.32
2022-11-17T15:33:50.374Z,3.31
2022-11-17T15:36:54.280Z,3.31
2022-11-17T15:39:59.375Z,3.31
2022-11-17T15:43:05.793Z,3.30
2022-11-17T15:46:12.576Z,3.33
2022-11-17T15:49:16.829Z,3.34
2022-11-17T15:52:41.532Z,3.35
2022-11-17T15:55:46.232Z,3.30
2022-11-17T15:58:56.655Z,3.33
2022-11-17T16:02:00.408Z,3.34
2022-11-17T16:05:04.243Z,3.32
2022-11-17T16:08:08.135Z,3.33
2022-11-17T16:11:13.345Z,3.34
2022-11-17T16:14:16.955Z,3.35
2022-11-17T16:17:20.708Z,3.36
2022-11-17T16:20:24.436Z,3.34
2022-11-17T16:23:28.101Z,3.39
2022-11-17T16:26:33.604Z,3.38
2022-11-17T16:29:37.330Z,3.40
2022-11-17T16:32:41.072Z,3.33
2022-11-17T16:35:45.937Z,3.33
2022-11-17T16:39:01.892Z,3.33
2022-11-17T16:42:07.825Z,3.37
2022-11-17T16:45:32.688Z,3.37
2022-11-17T16:48:36.348Z,3.38
2022-11-17T16:51:40.438Z,3.38
2022-11-17T16:54:44.164Z,3.40
2022-11-17T16:57:49.175Z,3.42
2022-11-17T17:00:52.877Z,3.38
2022-11-17T17:03:57.914Z,3.39
2022-11-17T17:07:01.699Z,3.42
2022-11-17T17:10:06.012Z,3.41
2022-11-17T17:13:11.022Z,3.41
2022-11-17T17:16:17.645Z,3.43
2022-11-17T17:19:21.407Z,3.42
2022-11-17T17:22:25.211Z,3.45
2022-11-17T17:25:28.803Z,3.42
2022-11-17T17:28:36.632Z,3.44
2022-11-17T17:31:43.268Z,3.46
2022-11-17T17:34:46.926Z,3.47
2022-11-17T17:37:50.576Z,3.44
2022-11-17T17:40:54.263Z,3.47
2022-11-17T17:44:01.568Z,3.43
2022-11-17T17:47:05.608Z,3.49
2022-11-17T17:50:10.434Z,3.45
2022-11-17T17:53:14.139Z,3.46
2022-11-17T17:56:20.794Z,3.52
2022-11-17T17:59:25.803Z,3.48
2022-11-17T18:02:29.333Z,3.49
2022-11-17T18:05:33.160Z,3.52
2022-11-17T18:08:38.055Z,3.50
2022-11-17T18:11:45.995Z,3.55
2022-11-17T18:14:51.427Z,3.52
2022-11-17T18:17:55.101Z,3.51
2022-11-17T18:21:03.943Z,3.54
2022-11-17T18:24:08.727Z,3.55
2022-11-17T18:27:12.364Z,3.56
2022-11-17T18:30:18.158Z,3.62
2022-11-17T18:33:21.839Z,3.62
2022-11-17T18:36:26.642Z,3.66
2022-11-17T18:39:31.730Z,3.60
2022-11-17T18:42:35.444Z,3.63
2022-11-17T18:45:40.858Z,3.63
2022-11-17T18:48:47.750Z,3.63
2022-11-17T18:51:51.643Z,3.63
2022-11-17T18:54:55.279Z,3.64
2022-11-17T18:57:58.915Z,3.64
2022-11-17T19:01:10.907Z,3.67
2022-11-17T19:04:15.801Z,3.68
2022-11-17T19:07:19.430Z,3.64
2022-11-17T19:10:23.103Z,3.63
2022-11-17T19:13:26.952Z,3.63
2022-11-17T19:16:33.241Z,3.64
2022-11-17T19:19:36.916Z,3.70
2022-11-17T19:22:40.449Z,3.69
2022-11-17T19:25:45.595Z,3.72
2022-11-17T19:28:49.833Z,3.69
2022-11-17T19:31:54.831Z,3.75
2022-11-17T19:35:09.244Z,3.72
2022-11-17T19:38:17.481Z,3.75
2022-11-17T19:41:24.906Z,3.72
2022-11-17T19:44:29.791Z,3.74
2022-11-17T19:47:34.828Z,3.72
2022-11-17T19:50:38.447Z,3.73
2022-11-17T19:53:42.675Z,3.73
2022-11-17T19:56:46.346Z,3.70
2022-11-17T19:59:50.004Z,3.74
2022-11-17T20:02:55.025Z,3.74
2022-11-17T20:06:01.571Z,3.75
2022-11-17T20:09:09.616Z,3.73
2022-11-17T20:12:13.285Z,3.74
2022-11-17T20:15:34.449Z,3.71
2022-11-17T20:18:39.896Z,3.70
2022-11-17T20:21:43.696Z,3.69
2022-11-17T20:24:47.512Z,3.72
2022-11-17T20:27:51.497Z,3.72
2022-11-17T20:30:55.255Z,3.65
2022-11-17T20:34:02.355Z,3.67
2022-11-17T20:37:06.047Z,3.67
2022-11-17T20:40:12.183Z,3.65
2022-11-17T20:43:15.890Z,3.63
2022-11-17T20:46:20.399Z,3.64
2022-11-17T20:49:28.289Z,3.60
2022-11-17T20:52:32.966Z,3.59
2022-11-17T20:55:37.076Z,3.63
2022-11-17T20:58:41.451Z,3.57
2022-11-17T21:01:45.543Z,3.59
2022-11-17T21:04:50.725Z,3.58
2022-11-17T21:07:54.506Z,3.58
2022-11-17T21:10:59.239Z,3.59
2022-11-17T21:14:03.743Z,3.63
2022-11-17T21:17:27.649Z,3.62
2022-11-17T21:20:33.479Z,3.58
2022-11-17T21:23:37.698Z,3.56
2022-11-17T21:26:41.446Z,3.59
2022-11-17T21:29:45.205Z,3.57
2022-11-17T21:32:48.984Z,3.61
2022-11-17T21:36:03.472Z,3.55
2022-11-17T21:39:07.178Z,3.52
2022-11-17T21:42:10.915Z,3.51
2022-11-17T21:45:14.829Z,3.50
2022-11-17T21:48:18.688Z,3.48
2022-11-17T21:51:27.691Z,3.48
2022-11-17T21:54:31.763Z,3.53
2022-11-17T21:57:35.780Z,3.49
2022-11-17T22:00:39.545Z,3.50
2022-11-17T22:03:44.398Z,3.49
2022-11-17T22:06:49.568Z,3.45
2022-11-17T22:09:54.966Z,3.44
2022-11-17T22:12:58.557Z,3.44
2022-11-17T22:16:09.276Z,3.43
2022-11-17T22:19:15.904Z,3.47
2022-11-17T22:22:21.063Z,3.41
2022-11-17T22:25:44.328Z,3.45
2022-11-17T22:28:53.501Z,3.38
2022-11-17T22:31:57.160Z,3.39
2022-11-17T22:35:01.831Z,3.40
2022-11-17T22:38:06.906Z,3.41
2022-11-17T22:41:12.949Z,3.43
2022-11-17T22:44:17.309Z,3.44
2022-11-17T22:47:21.175Z,3.39
2022-11-17T22:50:24.955Z,3.39
2022-11-17T22:53:30.154Z,3.39
2022-11-17T22:56:35.092Z,3.39
2022-11-17T22:59:38.819Z,3.37
2022-11-17T23:02:42.584Z,3.37
2022-11-17T23:05:46.527Z,3.36
2022-11-17T23:08:52.023Z,3.35
2022-11-17T23:11:55.726Z,3.32
2022-11-17T23:14:59.423Z,3.33
2022-11-17T23:18:03.299Z,3.28
2022-11-17T23:21:09.591Z,3.30
2022-11-17T23:24:14.753Z,3.29
2022-11-17T23:27:18.764Z,3.30
2022-11-17T23:30:22.461Z,3.26
2022-11-17T23:33:26.097Z,3.31
2022-11-17T23:36:30.298Z,3.29
2022-11-17T23:39:35.447Z,3.33
2022-11-17T23:42:43.002Z,3.28
2022-11-17T23:45:47.034Z,3.30
2022-11-17T23:48:51.275Z,3.27
2022-11-17T23:51:54.970Z,3.31
2022-11-17T23:54:59.961Z,3.25
2022-11-17T23:58:03.644Z,3.26
